This is the latest recevied weather packets stored in our database for station/object NC4J. If no packets are shown the sender has not sent any weather packets the latest 1 day(s).
| Time | Temp. | Humidity | Pressure | Rain* | Wind** | Luminosity | Snow |
|---|---|---|---|---|---|---|---|
| 1778104065 | 18.33° C | 91% | 1014.5 hPa | 1.78 mm | - | 13 W/m² | - |
| 1778103461 | 18.33° C | 90% | 1014.6 hPa | 0 mm | - | 14 W/m² | - |
| 1778103157 | 18.89° C | 90% | 1014.5 hPa | 0 mm | - | 13 W/m² | - |
| 1778101942 | 20° C | 83% | 1014.6 hPa | 0 mm | - | 17 W/m² | - |
| 1778100426 | 20.56° C | 77% | 1014.6 hPa | 0 mm | - | 47 W/m² | - |
| 1778100123 | 20.56° C | 77% | 1014.9 hPa | 0 mm | - | 58 W/m² | - |
| 1778099821 | 20.56° C | 75% | 1014.6 hPa | 0 mm | - | 77 W/m² | - |
| 1778099518 | 20.56° C | 75% | 1014.4 hPa | 0 mm | - | 89 W/m² | - |
| 1778096184 | 20.56° C | 78% | 1014.8 hPa | 0 mm | - | 144 W/m² | - |
| 1778093757 | 19.44° C | 84% | 1014.9 hPa | 0 mm | - | 144 W/m² | - |
| 1778093151 | 18.89° C | 84% | 1015 hPa | 0 mm | - | 122 W/m² | - |
| 1778091938 | 18.89° C | 82% | 1014.8 hPa | 0 mm | - | 145 W/m² | - |
| 1778090726 | 18.33° C | 85% | 1014.5 hPa | 0 mm | - | 128 W/m² | - |
| 1778089816 | 17.78° C | 85% | 1014.4 hPa | 0 mm | - | 141 W/m² | - |
| 1778089210 | 17.22° C | 89% | 1014.6 hPa | 0 mm | - | 177 W/m² | - |
| 1778087998 | 16.67° C | 91% | 1014.8 hPa | 0 mm | - | 118 W/m² | - |
| 1778085577 | 15° C | 94% | 1016.5 hPa | 3.05 mm | - | 55 W/m² | - |
| 1778084665 | 15.56° C | 93% | 1017.4 hPa | 4.32 mm | - | 45 W/m² | - |
| 1778084362 | 15.56° C | 93% | 1017.7 hPa | 3.05 mm | - | 23 W/m² | - |
| 1778081731 | 16.67° C | 78% | 1016.6 hPa | 0 mm | - | 20 W/m² | - |
| 1778081125 | 17.78° C | 71% | 1016.6 hPa | 0 mm | - | 22 W/m² | - |
| 1778080823 | 17.78° C | 70% | 1016.3 hPa | 0 mm | - | 21 W/m² | - |
| 1778079914 | 17.78° C | 66% | 1015.5 hPa | 0 mm | - | 53 W/m² | - |
| 1778078096 | 17.78° C | 64% | 1015.4 hPa | 0 mm | - | 77 W/m² | - |
| 1778077795 | 17.78° C | 64% | 1015.2 hPa | 0 mm | - | 80 W/m² | - |
* Rain latest hour (hover to see other rain measurements)
** Current wind speed in m/s (hover to see current wind gust speed)